sensor_id;sensor_type;location;lat;lon;timestamp;temperature;humidity
451;DHT22;212;48.748;9.174;2022-08-03T00:02:02;21.70;1.00
451;DHT22;212;48.748;9.174;2022-08-03T00:04:29;21.70;1.00
451;DHT22;212;48.748;9.174;2022-08-03T00:06:55;21.70;1.00
451;DHT22;212;48.748;9.174;2022-08-03T00:09:22;21.70;1.00
451;DHT22;212;48.748;9.174;2022-08-03T00:11:49;21.70;1.00
451;DHT22;212;48.748;9.174;2022-08-03T00:14:15;21.60;1.00
451;DHT22;212;48.748;9.174;2022-08-03T00:16:43;21.60;1.00
451;DHT22;212;48.748;9.174;2022-08-03T00:19:10;21.60;1.00
451;DHT22;212;48.748;9.174;2022-08-03T00:21:36;21.60;1.00
451;DHT22;212;48.748;9.174;2022-08-03T00:24:04;21.60;1.00
451;DHT22;212;48.748;9.174;2022-08-03T00:26:31;21.60;1.00
451;DHT22;212;48.748;9.174;2022-08-03T00:28:57;21.60;1.00
451;DHT22;212;48.748;9.174;2022-08-03T00:31:24;21.60;1.00
451;DHT22;212;48.748;9.174;2022-08-03T00:33:52;21.50;1.00
451;DHT22;212;48.748;9.174;2022-08-03T00:36:19;21.50;1.00
451;DHT22;212;48.748;9.174;2022-08-03T00:38:45;21.40;1.00
451;DHT22;212;48.748;9.174;2022-08-03T00:41:12;21.50;1.00
451;DHT22;212;48.748;9.174;2022-08-03T00:43:39;21.50;1.00
451;DHT22;212;48.748;9.174;2022-08-03T00:46:05;21.50;1.00
451;DHT22;212;48.748;9.174;2022-08-03T00:48:32;21.40;1.00
451;DHT22;212;48.748;9.174;2022-08-03T00:51:00;21.40;1.00
451;DHT22;212;48.748;9.174;2022-08-03T00:53:27;21.30;1.00
451;DHT22;212;48.748;9.174;2022-08-03T00:55:54;21.40;1.00
451;DHT22;212;48.748;9.174;2022-08-03T00:58:20;21.50;1.00
451;DHT22;212;48.748;9.174;2022-08-03T01:00:48;21.40;1.00
451;DHT22;212;48.748;9.174;2022-08-03T01:03:15;21.30;1.00
451;DHT22;212;48.748;9.174;2022-08-03T01:05:51;21.20;1.00
451;DHT22;212;48.748;9.174;2022-08-03T01:08:27;21.30;1.00
451;DHT22;212;48.748;9.174;2022-08-03T01:11:05;21.10;1.00
451;DHT22;212;48.748;9.174;2022-08-03T01:13:36;21.10;1.00
451;DHT22;212;48.748;9.174;2022-08-03T01:16:11;21.00;1.00
451;DHT22;212;48.748;9.174;2022-08-03T01:18:45;21.00;1.00
451;DHT22;212;48.748;9.174;2022-08-03T01:21:17;21.10;1.00
451;DHT22;212;48.748;9.174;2022-08-03T01:23:56;21.00;1.00
451;DHT22;212;48.748;9.174;2022-08-03T01:26:41;21.00;1.00
451;DHT22;212;48.748;9.174;2022-08-03T01:29:37;21.00;1.00
451;DHT22;212;48.748;9.174;2022-08-03T01:32:08;21.00;1.00
451;DHT22;212;48.748;9.174;2022-08-03T01:34:44;21.00;1.00
451;DHT22;212;48.748;9.174;2022-08-03T01:37:15;21.00;1.00
451;DHT22;212;48.748;9.174;2022-08-03T01:39:43;21.00;1.00
451;DHT22;212;48.748;9.174;2022-08-03T01:42:10;20.90;1.00
451;DHT22;212;48.748;9.174;2022-08-03T01:44:41;20.80;1.00
451;DHT22;212;48.748;9.174;2022-08-03T01:47:11;20.70;1.00
451;DHT22;212;48.748;9.174;2022-08-03T01:49:42;20.80;1.00
451;DHT22;212;48.748;9.174;2022-08-03T01:52:10;20.90;1.00
451;DHT22;212;48.748;9.174;2022-08-03T01:54:42;20.90;1.00
451;DHT22;212;48.748;9.174;2022-08-03T01:57:10;20.80;1.00
451;DHT22;212;48.748;9.174;2022-08-03T01:59:37;20.80;1.00
451;DHT22;212;48.748;9.174;2022-08-03T02:02:07;20.80;1.00
451;DHT22;212;48.748;9.174;2022-08-03T02:04:37;20.70;1.00
451;DHT22;212;48.748;9.174;2022-08-03T02:07:07;20.70;1.00
451;DHT22;212;48.748;9.174;2022-08-03T02:09:38;20.70;1.00
451;DHT22;212;48.748;9.174;2022-08-03T02:12:07;20.80;1.00
451;DHT22;212;48.748;9.174;2022-08-03T02:14:35;20.90;1.00
451;DHT22;212;48.748;9.174;2022-08-03T02:17:02;20.80;1.00
451;DHT22;212;48.748;9.174;2022-08-03T02:19:32;20.70;1.00
451;DHT22;212;48.748;9.174;2022-08-03T02:22:00;20.70;1.00
451;DHT22;212;48.748;9.174;2022-08-03T02:24:27;20.70;1.00
451;DHT22;212;48.748;9.174;2022-08-03T02:26:55;20.70;1.00
451;DHT22;212;48.748;9.174;2022-08-03T02:29:24;20.60;1.00
451;DHT22;212;48.748;9.174;2022-08-03T02:31:54;20.50;1.00
451;DHT22;212;48.748;9.174;2022-08-03T02:34:26;20.50;1.00
451;DHT22;212;48.748;9.174;2022-08-03T02:36:56;20.50;1.00
451;DHT22;212;48.748;9.174;2022-08-03T02:39:26;20.50;1.00
451;DHT22;212;48.748;9.174;2022-08-03T02:41:55;20.40;1.00
451;DHT22;212;48.748;9.174;2022-08-03T02:44:27;20.40;1.00
451;DHT22;212;48.748;9.174;2022-08-03T02:46:56;20.30;1.00
451;DHT22;212;48.748;9.174;2022-08-03T02:49:26;20.30;1.00
451;DHT22;212;48.748;9.174;2022-08-03T02:51:55;20.30;1.00
451;DHT22;212;48.748;9.174;2022-08-03T02:54:24;20.30;1.00
451;DHT22;212;48.748;9.174;2022-08-03T02:56:53;20.40;1.00
451;DHT22;212;48.748;9.174;2022-08-03T02:59:23;20.40;1.00
451;DHT22;212;48.748;9.174;2022-08-03T03:01:51;20.20;1.00
451;DHT22;212;48.748;9.174;2022-08-03T03:04:18;20.10;1.00
451;DHT22;212;48.748;9.174;2022-08-03T03:06:45;20.00;1.00
451;DHT22;212;48.748;9.174;2022-08-03T03:09:15;20.00;1.00
451;DHT22;212;48.748;9.174;2022-08-03T03:11:43;19.90;1.00
451;DHT22;212;48.748;9.174;2022-08-03T03:14:10;19.90;1.00
451;DHT22;212;48.748;9.174;2022-08-03T03:16:38;19.80;1.00
451;DHT22;212;48.748;9.174;2022-08-03T03:19:06;19.90;1.00
451;DHT22;212;48.748;9.174;2022-08-03T03:21:34;19.90;1.00
451;DHT22;212;48.748;9.174;2022-08-03T03:24:03;20.00;1.00
451;DHT22;212;48.748;9.174;2022-08-03T03:26:32;19.90;1.00
451;DHT22;212;48.748;9.174;2022-08-03T03:29:00;19.90;1.00
451;DHT22;212;48.748;9.174;2022-08-03T03:31:27;20.00;1.00
451;DHT22;212;48.748;9.174;2022-08-03T03:33:54;20.10;1.00
451;DHT22;212;48.748;9.174;2022-08-03T03:36:22;19.90;1.00
451;DHT22;212;48.748;9.174;2022-08-03T03:38:49;19.80;1.00
451;DHT22;212;48.748;9.174;2022-08-03T03:41:16;19.70;1.00
451;DHT22;212;48.748;9.174;2022-08-03T03:43:44;19.60;1.00
451;DHT22;212;48.748;9.174;2022-08-03T03:46:12;19.60;1.00
451;DHT22;212;48.748;9.174;2022-08-03T03:48:39;19.60;1.00
451;DHT22;212;48.748;9.174;2022-08-03T03:51:06;19.60;1.00
451;DHT22;212;48.748;9.174;2022-08-03T03:53:32;19.70;1.00
451;DHT22;212;48.748;9.174;2022-08-03T03:55:59;19.90;1.00
451;DHT22;212;48.748;9.174;2022-08-03T03:58:26;19.80;1.00
451;DHT22;212;48.748;9.174;2022-08-03T04:00:54;19.90;1.00
451;DHT22;212;48.748;9.174;2022-08-03T04:03:21;19.80;1.00
451;DHT22;212;48.748;9.174;2022-08-03T04:05:47;19.70;1.00
451;DHT22;212;48.748;9.174;2022-08-03T04:08:31;19.80;1.00
451;DHT22;212;48.748;9.174;2022-08-03T04:11:19;19.70;1.00
451;DHT22;212;48.748;9.174;2022-08-03T04:13:49;19.70;1.00
451;DHT22;212;48.748;9.174;2022-08-03T04:16:20;19.70;1.00
451;DHT22;212;48.748;9.174;2022-08-03T04:18:51;19.70;1.00
451;DHT22;212;48.748;9.174;2022-08-03T04:21:20;19.60;1.00
451;DHT22;212;48.748;9.174;2022-08-03T04:23:52;19.50;1.00
451;DHT22;212;48.748;9.174;2022-08-03T04:26:20;19.50;1.00
451;DHT22;212;48.748;9.174;2022-08-03T04:28:49;19.60;1.00
451;DHT22;212;48.748;9.174;2022-08-03T04:31:20;19.60;1.00
451;DHT22;212;48.748;9.174;2022-08-03T04:33:48;19.70;1.00
451;DHT22;212;48.748;9.174;2022-08-03T04:36:18;19.70;1.00
451;DHT22;212;48.748;9.174;2022-08-03T04:38:53;19.70;1.00
451;DHT22;212;48.748;9.174;2022-08-03T04:41:22;19.70;1.00
451;DHT22;212;48.748;9.174;2022-08-03T04:43:51;19.70;1.00
451;DHT22;212;48.748;9.174;2022-08-03T04:46:22;19.70;1.00
451;DHT22;212;48.748;9.174;2022-08-03T04:48:49;19.70;1.00
451;DHT22;212;48.748;9.174;2022-08-03T04:51:16;19.70;1.00
451;DHT22;212;48.748;9.174;2022-08-03T04:53:43;19.60;1.00
451;DHT22;212;48.748;9.174;2022-08-03T04:56:10;19.60;1.00
451;DHT22;212;48.748;9.174;2022-08-03T04:58:37;19.60;1.00
451;DHT22;212;48.748;9.174;2022-08-03T05:01:03;19.60;1.00
451;DHT22;212;48.748;9.174;2022-08-03T05:03:31;19.60;1.00
451;DHT22;212;48.748;9.174;2022-08-03T05:05:58;19.60;1.00
451;DHT22;212;48.748;9.174;2022-08-03T05:08:25;19.70;1.00
451;DHT22;212;48.748;9.174;2022-08-03T05:10:51;19.70;1.00
451;DHT22;212;48.748;9.174;2022-08-03T05:13:18;19.80;1.00
451;DHT22;212;48.748;9.174;2022-08-03T05:15:45;19.90;1.00
451;DHT22;212;48.748;9.174;2022-08-03T05:18:11;20.00;1.00
451;DHT22;212;48.748;9.174;2022-08-03T05:20:39;20.20;1.00
451;DHT22;212;48.748;9.174;2022-08-03T05:23:06;20.30;1.00
451;DHT22;212;48.748;9.174;2022-08-03T05:25:33;20.40;1.00
451;DHT22;212;48.748;9.174;2022-08-03T05:27:59;20.60;1.00
451;DHT22;212;48.748;9.174;2022-08-03T05:30:26;20.70;1.00
451;DHT22;212;48.748;9.174;2022-08-03T05:32:53;20.80;1.00
451;DHT22;212;48.748;9.174;2022-08-03T05:35:19;20.90;1.00
451;DHT22;212;48.748;9.174;2022-08-03T05:37:47;21.00;1.00
451;DHT22;212;48.748;9.174;2022-08-03T05:40:14;21.20;1.00
451;DHT22;212;48.748;9.174;2022-08-03T05:42:41;21.30;1.00
451;DHT22;212;48.748;9.174;2022-08-03T05:45:09;21.40;1.00
451;DHT22;212;48.748;9.174;2022-08-03T05:47:40;21.50;1.00
451;DHT22;212;48.748;9.174;2022-08-03T05:50:08;21.70;1.00
451;DHT22;212;48.748;9.174;2022-08-03T05:52:35;21.80;1.00
451;DHT22;212;48.748;9.174;2022-08-03T05:55:04;22.00;1.00
451;DHT22;212;48.748;9.174;2022-08-03T05:57:31;22.10;1.00
451;DHT22;212;48.748;9.174;2022-08-03T05:59:58;22.50;1.00
451;DHT22;212;48.748;9.174;2022-08-03T06:02:24;23.00;1.00
451;DHT22;212;48.748;9.174;2022-08-03T06:04:51;23.60;1.00
451;DHT22;212;48.748;9.174;2022-08-03T06:07:18;24.20;1.00
451;DHT22;212;48.748;9.174;2022-08-03T06:09:44;25.00;1.00
451;DHT22;212;48.748;9.174;2022-08-03T06:12:12;25.60;1.00
451;DHT22;212;48.748;9.174;2022-08-03T06:14:39;26.30;1.00
451;DHT22;212;48.748;9.174;2022-08-03T06:17:06;26.80;1.00
451;DHT22;212;48.748;9.174;2022-08-03T06:19:33;27.20;1.00
451;DHT22;212;48.748;9.174;2022-08-03T06:21:59;27.50;1.00
451;DHT22;212;48.748;9.174;2022-08-03T06:24:26;28.00;1.00
451;DHT22;212;48.748;9.174;2022-08-03T06:26:52;28.60;1.00
451;DHT22;212;48.748;9.174;2022-08-03T06:29:26;28.50;1.00
451;DHT22;212;48.748;9.174;2022-08-03T06:31:54;28.50;1.00
451;DHT22;212;48.748;9.174;2022-08-03T06:34:20;29.20;1.00
451;DHT22;212;48.748;9.174;2022-08-03T06:36:47;29.70;1.00
451;DHT22;212;48.748;9.174;2022-08-03T06:39:15;30.50;1.00
451;DHT22;212;48.748;9.174;2022-08-03T06:41:42;31.10;1.00
451;DHT22;212;48.748;9.174;2022-08-03T06:44:09;31.60;1.00
451;DHT22;212;48.748;9.174;2022-08-03T06:46:37;32.20;1.00
451;DHT22;212;48.748;9.174;2022-08-03T06:49:04;32.50;1.00
451;DHT22;212;48.748;9.174;2022-08-03T06:51:30;33.20;1.00
451;DHT22;212;48.748;9.174;2022-08-03T06:53:57;34.30;1.00
451;DHT22;212;48.748;9.174;2022-08-03T06:56:24;35.10;1.00
451;DHT22;212;48.748;9.174;2022-08-03T06:58:50;35.60;1.00
451;DHT22;212;48.748;9.174;2022-08-03T07:01:17;36.00;1.00
451;DHT22;212;48.748;9.174;2022-08-03T07:03:45;37.10;1.00
451;DHT22;212;48.748;9.174;2022-08-03T07:06:12;37.50;1.00
451;DHT22;212;48.748;9.174;2022-08-03T07:08:38;38.00;1.00
451;DHT22;212;48.748;9.174;2022-08-03T07:11:05;38.30;1.00
451;DHT22;212;48.748;9.174;2022-08-03T07:13:32;38.40;1.00
451;DHT22;212;48.748;9.174;2022-08-03T07:15:59;37.80;1.00
451;DHT22;212;48.748;9.174;2022-08-03T07:18:25;38.00;1.00
451;DHT22;212;48.748;9.174;2022-08-03T07:20:53;38.60;1.00
451;DHT22;212;48.748;9.174;2022-08-03T07:23:20;38.90;1.00
451;DHT22;212;48.748;9.174;2022-08-03T07:25:47;39.10;1.00
451;DHT22;212;48.748;9.174;2022-08-03T07:28:13;38.70;1.00
451;DHT22;212;48.748;9.174;2022-08-03T07:30:40;38.60;1.00
451;DHT22;212;48.748;9.174;2022-08-03T07:33:07;39.00;1.00
451;DHT22;212;48.748;9.174;2022-08-03T07:35:33;39.80;1.00
451;DHT22;212;48.748;9.174;2022-08-03T07:38:01;39.80;1.00
451;DHT22;212;48.748;9.174;2022-08-03T07:40:28;39.50;1.00
451;DHT22;212;48.748;9.174;2022-08-03T07:42:55;39.10;1.00
451;DHT22;212;48.748;9.174;2022-08-03T07:45:22;39.30;1.00
451;DHT22;212;48.748;9.174;2022-08-03T07:47:50;39.10;1.00
451;DHT22;212;48.748;9.174;2022-08-03T07:50:17;39.20;1.00
451;DHT22;212;48.748;9.174;2022-08-03T07:52:44;39.00;1.00
451;DHT22;212;48.748;9.174;2022-08-03T07:55:15;39.30;1.00
451;DHT22;212;48.748;9.174;2022-08-03T07:57:42;39.80;1.00
451;DHT22;212;48.748;9.174;2022-08-03T08:00:14;39.60;1.00
451;DHT22;212;48.748;9.174;2022-08-03T08:02:41;40.00;1.00
451;DHT22;212;48.748;9.174;2022-08-03T08:05:08;40.40;1.00
451;DHT22;212;48.748;9.174;2022-08-03T08:07:35;40.90;1.00
451;DHT22;212;48.748;9.174;2022-08-03T08:10:03;40.60;1.00
451;DHT22;212;48.748;9.174;2022-08-03T08:12:31;40.80;1.00
451;DHT22;212;48.748;9.174;2022-08-03T08:14:58;41.90;1.00
451;DHT22;212;48.748;9.174;2022-08-03T08:17:25;42.80;1.00
451;DHT22;212;48.748;9.174;2022-08-03T08:19:52;43.10;1.00
451;DHT22;212;48.748;9.174;2022-08-03T08:22:19;42.50;1.00
451;DHT22;212;48.748;9.174;2022-08-03T08:24:45;41.90;1.00
451;DHT22;212;48.748;9.174;2022-08-03T08:27:13;42.50;1.00
451;DHT22;212;48.748;9.174;2022-08-03T08:29:41;42.50;1.00
451;DHT22;212;48.748;9.174;2022-08-03T08:32:08;41.80;1.00
451;DHT22;212;48.748;9.174;2022-08-03T08:34:35;42.10;1.00
451;DHT22;212;48.748;9.174;2022-08-03T08:37:02;41.80;1.00
451;DHT22;212;48.748;9.174;2022-08-03T08:39:29;41.40;1.00
451;DHT22;212;48.748;9.174;2022-08-03T08:41:56;41.30;1.00
451;DHT22;212;48.748;9.174;2022-08-03T08:44:22;42.00;1.00
451;DHT22;212;48.748;9.174;2022-08-03T08:46:52;42.90;1.00
451;DHT22;212;48.748;9.174;2022-08-03T08:49:22;43.20;1.00
451;DHT22;212;48.748;9.174;2022-08-03T08:51:50;43.10;1.00
451;DHT22;212;48.748;9.174;2022-08-03T08:54:20;42.20;1.00
451;DHT22;212;48.748;9.174;2022-08-03T08:56:48;42.60;1.00
451;DHT22;212;48.748;9.174;2022-08-03T08:59:16;43.40;1.00
451;DHT22;212;48.748;9.174;2022-08-03T09:01:43;43.70;1.00
451;DHT22;212;48.748;9.174;2022-08-03T09:04:11;43.70;1.00
451;DHT22;212;48.748;9.174;2022-08-03T09:06:38;44.30;1.00
451;DHT22;212;48.748;9.174;2022-08-03T09:09:05;44.70;1.00
451;DHT22;212;48.748;9.174;2022-08-03T09:11:32;44.30;1.00
451;DHT22;212;48.748;9.174;2022-08-03T09:14:00;44.30;1.00
451;DHT22;212;48.748;9.174;2022-08-03T09:16:26;43.80;1.00
451;DHT22;212;48.748;9.174;2022-08-03T09:18:53;43.40;1.00
451;DHT22;212;48.748;9.174;2022-08-03T09:21:23;42.60;1.00
451;DHT22;212;48.748;9.174;2022-08-03T09:23:51;42.10;1.00
451;DHT22;212;48.748;9.174;2022-08-03T09:26:22;42.80;1.00
451;DHT22;212;48.748;9.174;2022-08-03T09:28:56;43.10;1.00
451;DHT22;212;48.748;9.174;2022-08-03T09:31:34;42.90;1.00
451;DHT22;212;48.748;9.174;2022-08-03T09:34:02;43.30;1.00
451;DHT22;212;48.748;9.174;2022-08-03T09:36:38;44.20;1.00
451;DHT22;212;48.748;9.174;2022-08-03T09:39:06;44.00;1.00
451;DHT22;212;48.748;9.174;2022-08-03T09:41:36;44.40;1.00
451;DHT22;212;48.748;9.174;2022-08-03T09:44:03;45.00;1.00
451;DHT22;212;48.748;9.174;2022-08-03T09:46:29;45.70;1.00
451;DHT22;212;48.748;9.174;2022-08-03T09:49:10;45.20;1.00
451;DHT22;212;48.748;9.174;2022-08-03T09:51:39;44.80;1.00
451;DHT22;212;48.748;9.174;2022-08-03T09:54:06;45.10;1.00
451;DHT22;212;48.748;9.174;2022-08-03T09:56:43;44.00;1.00
451;DHT22;212;48.748;9.174;2022-08-03T09:59:12;44.70;1.00
451;DHT22;212;48.748;9.174;2022-08-03T10:01:39;43.40;1.00
451;DHT22;212;48.748;9.174;2022-08-03T10:04:12;42.60;1.00
451;DHT22;212;48.748;9.174;2022-08-03T10:06:43;42.70;1.00
451;DHT22;212;48.748;9.174;2022-08-03T10:09:11;41.70;1.00
451;DHT22;212;48.748;9.174;2022-08-03T10:11:38;42.70;1.00
451;DHT22;212;48.748;9.174;2022-08-03T10:14:07;43.10;1.00
451;DHT22;212;48.748;9.174;2022-08-03T10:16:35;42.60;1.00
451;DHT22;212;48.748;9.174;2022-08-03T10:19:03;43.30;1.00
451;DHT22;212;48.748;9.174;2022-08-03T10:21:33;43.50;1.00
451;DHT22;212;48.748;9.174;2022-08-03T10:24:06;43.40;1.00
451;DHT22;212;48.748;9.174;2022-08-03T10:26:37;43.60;1.00
451;DHT22;212;48.748;9.174;2022-08-03T10:29:09;42.70;1.00
451;DHT22;212;48.748;9.174;2022-08-03T10:31:38;42.00;1.00
451;DHT22;212;48.748;9.174;2022-08-03T10:34:10;42.20;1.00
451;DHT22;212;48.748;9.174;2022-08-03T10:36:40;42.90;1.00
451;DHT22;212;48.748;9.174;2022-08-03T10:39:10;43.80;1.00
451;DHT22;212;48.748;9.174;2022-08-03T10:41:40;44.40;1.00
451;DHT22;212;48.748;9.174;2022-08-03T10:44:12;44.30;1.00
451;DHT22;212;48.748;9.174;2022-08-03T10:46:41;44.80;1.00
451;DHT22;212;48.748;9.174;2022-08-03T10:49:11;44.10;1.00
451;DHT22;212;48.748;9.174;2022-08-03T10:51:39;42.50;1.00
451;DHT22;212;48.748;9.174;2022-08-03T10:54:06;43.00;1.00
451;DHT22;212;48.748;9.174;2022-08-03T10:56:40;42.40;1.00
451;DHT22;212;48.748;9.174;2022-08-03T10:59:56;42.00;1.00
451;DHT22;212;48.748;9.174;2022-08-03T11:03:02;42.70;1.00
451;DHT22;212;48.748;9.174;2022-08-03T11:05:31;42.40;1.00
451;DHT22;212;48.748;9.174;2022-08-03T11:08:31;42.40;1.00
451;DHT22;212;48.748;9.174;2022-08-03T11:11:01;42.40;1.00
451;DHT22;212;48.748;9.174;2022-08-03T11:13:30;42.30;1.00
451;DHT22;212;48.748;9.174;2022-08-03T11:16:01;42.30;1.00
451;DHT22;212;48.748;9.174;2022-08-03T11:18:28;43.00;1.00
451;DHT22;212;48.748;9.174;2022-08-03T11:20:56;42.60;1.00
451;DHT22;212;48.748;9.174;2022-08-03T11:23:40;42.30;1.00
451;DHT22;212;48.748;9.174;2022-08-03T11:26:08;42.50;1.00
451;DHT22;212;48.748;9.174;2022-08-03T11:28:37;42.90;1.00
451;DHT22;212;48.748;9.174;2022-08-03T11:31:45;41.40;1.00
451;DHT22;212;48.748;9.174;2022-08-03T11:34:14;42.20;1.00
451;DHT22;212;48.748;9.174;2022-08-03T11:37:18;41.80;1.00
451;DHT22;212;48.748;9.174;2022-08-03T11:39:47;41.60;1.00
451;DHT22;212;48.748;9.174;2022-08-03T11:42:39;42.00;1.00
451;DHT22;212;48.748;9.174;2022-08-03T11:45:10;41.70;1.00
451;DHT22;212;48.748;9.174;2022-08-03T11:47:38;41.90;1.00
451;DHT22;212;48.748;9.174;2022-08-03T11:50:06;41.90;1.00
451;DHT22;212;48.748;9.174;2022-08-03T11:52:38;41.10;1.00
451;DHT22;212;48.748;9.174;2022-08-03T11:55:13;40.80;1.00
451;DHT22;212;48.748;9.174;2022-08-03T11:57:40;40.20;1.00
451;DHT22;212;48.748;9.174;2022-08-03T12:00:22;40.10;1.00
451;DHT22;212;48.748;9.174;2022-08-03T12:03:00;39.60;1.00
451;DHT22;212;48.748;9.174;2022-08-03T12:05:42;39.50;1.00
451;DHT22;212;48.748;9.174;2022-08-03T12:08:11;39.50;1.00
451;DHT22;212;48.748;9.174;2022-08-03T12:10:39;39.60;1.00
451;DHT22;212;48.748;9.174;2022-08-03T12:13:06;39.00;1.00
451;DHT22;212;48.748;9.174;2022-08-03T12:15:36;38.50;1.00
451;DHT22;212;48.748;9.174;2022-08-03T12:18:12;38.50;1.00
451;DHT22;212;48.748;9.174;2022-08-03T12:20:39;39.10;1.00
451;DHT22;212;48.748;9.174;2022-08-03T12:23:07;38.60;1.00
451;DHT22;212;48.748;9.174;2022-08-03T12:25:34;39.70;1.00
451;DHT22;212;48.748;9.174;2022-08-03T12:28:11;39.40;1.00
451;DHT22;212;48.748;9.174;2022-08-03T12:30:42;38.40;1.00
451;DHT22;212;48.748;9.174;2022-08-03T12:33:17;37.80;1.00
451;DHT22;212;48.748;9.174;2022-08-03T12:35:47;38.00;1.00
451;DHT22;212;48.748;9.174;2022-08-03T12:38:19;38.80;1.00
451;DHT22;212;48.748;9.174;2022-08-03T12:40:55;39.10;1.00
451;DHT22;212;48.748;9.174;2022-08-03T12:43:22;38.60;1.00
451;DHT22;212;48.748;9.174;2022-08-03T12:45:50;38.80;1.00
451;DHT22;212;48.748;9.174;2022-08-03T12:48:16;38.80;1.00
451;DHT22;212;48.748;9.174;2022-08-03T12:50:43;38.70;1.00
451;DHT22;212;48.748;9.174;2022-08-03T12:53:10;38.00;1.00
451;DHT22;212;48.748;9.174;2022-08-03T12:55:38;37.80;1.00
451;DHT22;212;48.748;9.174;2022-08-03T12:58:06;37.40;1.00
451;DHT22;212;48.748;9.174;2022-08-03T13:00:35;36.70;1.00
451;DHT22;212;48.748;9.174;2022-08-03T13:03:05;36.60;1.00
451;DHT22;212;48.748;9.174;2022-08-03T13:05:41;36.70;1.00
451;DHT22;212;48.748;9.174;2022-08-03T13:08:17;36.70;1.00
451;DHT22;212;48.748;9.174;2022-08-03T13:10:44;36.60;1.00
451;DHT22;212;48.748;9.174;2022-08-03T13:13:10;36.50;1.00
451;DHT22;212;48.748;9.174;2022-08-03T13:15:37;36.30;1.00
451;DHT22;212;48.748;9.174;2022-08-03T13:18:05;36.30;1.00
451;DHT22;212;48.748;9.174;2022-08-03T13:20:32;35.70;1.00
451;DHT22;212;48.748;9.174;2022-08-03T13:22:59;35.40;1.00
451;DHT22;212;48.748;9.174;2022-08-03T13:25:26;34.60;1.00
451;DHT22;212;48.748;9.174;2022-08-03T13:27:52;34.50;1.00
451;DHT22;212;48.748;9.174;2022-08-03T13:30:19;34.00;1.00
451;DHT22;212;48.748;9.174;2022-08-03T13:32:46;33.50;1.00
451;DHT22;212;48.748;9.174;2022-08-03T13:35:14;33.30;1.00
451;DHT22;212;48.748;9.174;2022-08-03T13:37:40;33.30;1.00
451;DHT22;212;48.748;9.174;2022-08-03T13:40:08;33.40;1.00
451;DHT22;212;48.748;9.174;2022-08-03T13:42:35;33.30;1.00
451;DHT22;212;48.748;9.174;2022-08-03T13:45:03;33.10;1.00
451;DHT22;212;48.748;9.174;2022-08-03T13:47:30;33.00;1.00
451;DHT22;212;48.748;9.174;2022-08-03T13:49:57;32.70;1.00
451;DHT22;212;48.748;9.174;2022-08-03T13:52:25;32.70;1.00
451;DHT22;212;48.748;9.174;2022-08-03T13:54:51;32.60;1.00
451;DHT22;212;48.748;9.174;2022-08-03T13:57:18;32.70;1.00
451;DHT22;212;48.748;9.174;2022-08-03T13:59:45;32.90;1.00
451;DHT22;212;48.748;9.174;2022-08-03T14:02:11;32.70;1.00
451;DHT22;212;48.748;9.174;2022-08-03T14:04:38;32.60;1.00
451;DHT22;212;48.748;9.174;2022-08-03T14:07:05;32.60;1.00
451;DHT22;212;48.748;9.174;2022-08-03T14:09:33;32.70;1.00
451;DHT22;212;48.748;9.174;2022-08-03T14:11:59;32.80;1.00
451;DHT22;212;48.748;9.174;2022-08-03T14:14:26;32.70;1.00
451;DHT22;212;48.748;9.174;2022-08-03T14:16:53;32.60;1.00
451;DHT22;212;48.748;9.174;2022-08-03T14:19:20;32.90;1.00
451;DHT22;212;48.748;9.174;2022-08-03T14:21:46;33.00;1.00
451;DHT22;212;48.748;9.174;2022-08-03T14:24:13;33.00;1.00
451;DHT22;212;48.748;9.174;2022-08-03T14:26:41;33.10;1.00
451;DHT22;212;48.748;9.174;2022-08-03T14:29:07;33.00;1.00
451;DHT22;212;48.748;9.174;2022-08-03T14:31:35;32.80;1.00
451;DHT22;212;48.748;9.174;2022-08-03T14:34:02;32.80;1.00
451;DHT22;212;48.748;9.174;2022-08-03T14:36:30;32.90;1.00
451;DHT22;212;48.748;9.174;2022-08-03T14:38:56;32.80;1.00
451;DHT22;212;48.748;9.174;2022-08-03T14:41:23;33.00;1.00
451;DHT22;212;48.748;9.174;2022-08-03T14:43:51;33.00;1.00
451;DHT22;212;48.748;9.174;2022-08-03T14:46:19;33.00;1.00
451;DHT22;212;48.748;9.174;2022-08-03T14:48:45;32.80;1.00
451;DHT22;212;48.748;9.174;2022-08-03T14:51:12;33.00;1.00
451;DHT22;212;48.748;9.174;2022-08-03T14:53:39;33.00;1.00
451;DHT22;212;48.748;9.174;2022-08-03T14:56:06;32.90;1.00
451;DHT22;212;48.748;9.174;2022-08-03T14:58:33;33.00;1.00
451;DHT22;212;48.748;9.174;2022-08-03T15:01:01;32.80;1.00
451;DHT22;212;48.748;9.174;2022-08-03T15:03:27;32.80;1.00
451;DHT22;212;48.748;9.174;2022-08-03T15:05:55;32.80;1.00
451;DHT22;212;48.748;9.174;2022-08-03T15:08:23;32.50;1.00
451;DHT22;212;48.748;9.174;2022-08-03T15:10:50;32.70;1.00
451;DHT22;212;48.748;9.174;2022-08-03T15:13:18;32.80;1.00
451;DHT22;212;48.748;9.174;2022-08-03T15:15:45;32.90;1.00
451;DHT22;212;48.748;9.174;2022-08-03T15:18:13;32.90;1.00
451;DHT22;212;48.748;9.174;2022-08-03T15:20:40;32.70;1.00
451;DHT22;212;48.748;9.174;2022-08-03T15:23:06;32.60;1.00
451;DHT22;212;48.748;9.174;2022-08-03T15:25:33;32.60;1.00
451;DHT22;212;48.748;9.174;2022-08-03T15:27:59;32.60;1.00
451;DHT22;212;48.748;9.174;2022-08-03T15:30:26;32.80;1.00
451;DHT22;212;48.748;9.174;2022-08-03T15:32:53;32.60;1.00
451;DHT22;212;48.748;9.174;2022-08-03T15:35:21;32.40;1.00
451;DHT22;212;48.748;9.174;2022-08-03T15:37:48;32.20;1.00
451;DHT22;212;48.748;9.174;2022-08-03T15:40:14;32.40;1.00
451;DHT22;212;48.748;9.174;2022-08-03T15:42:41;32.60;1.00
451;DHT22;212;48.748;9.174;2022-08-03T15:45:08;32.80;1.00
451;DHT22;212;48.748;9.174;2022-08-03T15:47:35;32.80;1.00
451;DHT22;212;48.748;9.174;2022-08-03T15:50:02;32.80;1.00
451;DHT22;212;48.748;9.174;2022-08-03T15:52:31;32.50;1.00
451;DHT22;212;48.748;9.174;2022-08-03T15:54:57;32.40;1.00
451;DHT22;212;48.748;9.174;2022-08-03T15:57:24;32.40;1.00
451;DHT22;212;48.748;9.174;2022-08-03T15:59:51;32.50;1.00
451;DHT22;212;48.748;9.174;2022-08-03T16:02:17;32.40;1.00
451;DHT22;212;48.748;9.174;2022-08-03T16:04:44;32.40;1.00
451;DHT22;212;48.748;9.174;2022-08-03T16:07:11;32.40;1.00
451;DHT22;212;48.748;9.174;2022-08-03T16:09:41;32.30;1.00
451;DHT22;212;48.748;9.174;2022-08-03T16:12:08;32.30;1.00
451;DHT22;212;48.748;9.174;2022-08-03T16:14:35;32.50;1.00
451;DHT22;212;48.748;9.174;2022-08-03T16:17:02;32.30;1.00
451;DHT22;212;48.748;9.174;2022-08-03T16:19:29;32.30;1.00
451;DHT22;212;48.748;9.174;2022-08-03T16:21:55;32.30;1.00
451;DHT22;212;48.748;9.174;2022-08-03T16:24:22;32.20;1.00
451;DHT22;212;48.748;9.174;2022-08-03T16:26:51;32.10;1.00
451;DHT22;212;48.748;9.174;2022-08-03T16:29:17;32.20;1.00
451;DHT22;212;48.748;9.174;2022-08-03T16:31:44;32.40;1.00
451;DHT22;212;48.748;9.174;2022-08-03T16:34:10;32.50;1.00
451;DHT22;212;48.748;9.174;2022-08-03T16:36:37;32.50;1.00
451;DHT22;212;48.748;9.174;2022-08-03T16:39:04;32.50;1.00
451;DHT22;212;48.748;9.174;2022-08-03T16:41:30;32.50;1.00
451;DHT22;212;48.748;9.174;2022-08-03T16:43:58;32.50;1.00
451;DHT22;212;48.748;9.174;2022-08-03T16:46:25;32.50;1.00
451;DHT22;212;48.748;9.174;2022-08-03T16:48:52;32.30;1.00
451;DHT22;212;48.748;9.174;2022-08-03T16:51:18;32.20;1.00
451;DHT22;212;48.748;9.174;2022-08-03T16:53:47;32.30;1.00
451;DHT22;212;48.748;9.174;2022-08-03T16:56:13;32.30;1.00
451;DHT22;212;48.748;9.174;2022-08-03T16:58:40;32.10;1.00
451;DHT22;212;48.748;9.174;2022-08-03T17:01:09;32.10;1.00
451;DHT22;212;48.748;9.174;2022-08-03T17:03:36;32.00;1.00